This is the latest recevied weather packets stored in our database for station/object S50APT-10. If no packets are shown the sender has not sent any weather packets the latest 10 day(s).
| Time | Temp. | Humidity | Pressure | Rain* | Wind** | Luminosity | Snow |
|---|---|---|---|---|---|---|---|
| 1777406133 | 15.56° C | 42% | 1021.1 hPa | - | - | - | - |
| 1777404331 | 15° C | 43% | 1021 hPa | - | - | - | - |
| 1777403430 | 15.56° C | 43% | 1020.8 hPa | - | - | - | - |
| 1777400728 | 15.56° C | 43% | 1020.4 hPa | - | - | - | - |
| 1777397125 | 16.67° C | 41% | 1020 hPa | - | - | - | - |
| 1777396225 | 16.67° C | 40% | 1019.9 hPa | - | - | - | - |
| 1777395324 | 16.67° C | 40% | 1019.9 hPa | - | - | - | - |
| 1777393522 | 17.78° C | 38% | 1019.8 hPa | - | - | - | - |
| 1777390821 | 19.44° C | 35% | 1019.8 hPa | - | - | - | - |
| 1777389920 | 18.89° C | 35% | 1019.8 hPa | - | - | - | - |
| 1777389020 | 19.44° C | 34% | 1019.9 hPa | - | - | - | - |
| 1777388119 | 18.89° C | 36% | 1019.9 hPa | - | - | - | - |
| 1777386318 | 20.56° C | 33% | 1020 hPa | - | - | - | - |
| 1777383652 | 23.33° C | 28% | 1020.3 hPa | - | - | - | - |
| 1777381815 | 23.89° C | 27% | 1020.7 hPa | - | - | - | - |
| 1777378250 | 25° C | 25% | 1020.9 hPa | - | - | - | - |
| 1777378212 | 25° C | 25% | 1020.9 hPa | - | - | - | - |
| 1777377311 | 24.44° C | 25% | 1021.1 hPa | - | - | - | - |
| 1777376411 | 23.33° C | 26% | 1021.2 hPa | - | - | - | - |
| 1777375510 | 21.67° C | 29% | 1021.3 hPa | - | - | - | - |
| 1777374609 | 25° C | 26% | 1021.4 hPa | - | - | - | - |
| 1777373708 | 22.78° C | 27% | 1021.5 hPa | - | - | - | - |
| 1777371907 | 26.11° C | 25% | 1021.8 hPa | - | - | - | - |
| 1777371006 | 20.56° C | 29% | 1021.9 hPa | - | - | - | - |
| 1777370252 | 21.67° C | 28% | 1021.9 hPa | - | - | - | - |
* Rain since midnight (hover to see other rain measurements)
** Current wind speed in m/s (hover to see current wind gust speed)